metar:  

KBOI 211753Z 26005KT 10SM CLR 29/07 A2996 RMK AO2 SLP114 T02890067 10289 20189 58001

TTF METAR YSSY 211800Z 27012KT CAVOK 15/04 Q1010 RMK RF00.0/000.0 FM1830 27015G25KT CAVOK FM1800 MOD/SEV TURB BLW 5000FT